Time;durP1;ratioP1;P1;durP2;ratioP2;P2;SDS_P1;SDS_P2;PMS_P1;PMS_P2;Temp;Humidity;BMP_temperature;BMP_pressure;BME280_temperature;BME280_humidity;BME280_pressure;Samples;Min_cycle;Max_cycle;Signal;HPM_P1;HPM_P2
2023/08/28 00:01:59;;;;;;;4.30;1.20;;;14.60;99.90;;;;;;4985821;28;21051;-68
2023/08/28 00:04:26;;;;;;;2.77;1.37;;;14.60;99.90;;;;;;4987002;28;20664;-69
2023/08/28 00:06:53;;;;;;;2.60;1.20;;;14.60;99.90;;;;;;4988538;28;20564;-68
2023/08/28 00:09:20;;;;;;;1.83;1.10;;;14.60;99.90;;;;;;4990623;28;20477;-68
2023/08/28 00:11:47;;;;;;;2.07;1.03;;;14.60;99.90;;;;;;4988887;28;20487;-68
2023/08/28 00:14:15;;;;;;;1.80;1.00;;;14.60;99.90;;;;;;4989260;28;20768;-67
2023/08/28 00:16:42;;;;;;;3.20;1.27;;;14.60;99.90;;;;;;4986360;28;21483;-68
2023/08/28 00:19:09;;;;;;;3.17;1.20;;;14.60;99.90;;;;;;4992052;28;20541;-68
2023/08/28 00:21:36;;;;;;;2.40;1.00;;;14.60;99.90;;;;;;4992176;28;20480;-67
2023/08/28 00:24:03;;;;;;;2.90;2.10;;;14.50;99.90;;;;;;4991912;28;20481;-68
2023/08/28 00:26:30;;;;;;;1.80;1.00;;;14.40;99.90;;;;;;4990907;28;20478;-67
2023/08/28 00:28:57;;;;;;;2.10;1.03;;;14.40;99.90;;;;;;4995715;28;20839;-68
2023/08/28 00:31:25;;;;;;;1.90;1.00;;;14.30;99.90;;;;;;4995052;28;20488;-67
2023/08/28 00:33:53;;;;;;;5.90;1.50;;;14.10;99.90;;;;;;4995713;28;20485;-68
2023/08/28 00:36:21;;;;;;;2.10;0.90;;;14.10;99.90;;;;;;4981197;28;20480;-67
2023/08/28 00:38:48;;;;;;;11.93;1.07;;;14.10;99.90;;;;;;4994807;28;20875;-67
2023/08/28 00:41:15;;;;;;;1.80;0.90;;;14.20;99.90;;;;;;4991991;28;20815;-67
2023/08/28 00:43:41;;;;;;;3.40;1.90;;;14.20;99.90;;;;;;4991610;28;20495;-67
2023/08/28 00:46:08;;;;;;;2.03;1.20;;;14.20;99.90;;;;;;4986647;28;20492;-67
2023/08/28 00:48:38;;;;;;;1.83;1.07;;;14.20;99.90;;;;;;4998247;28;20601;-67
2023/08/28 00:51:06;;;;;;;3.47;1.13;;;14.20;99.90;;;;;;4999155;28;20488;-67
2023/08/28 00:53:33;;;;;;;2.00;1.10;;;14.20;99.90;;;;;;4992258;28;20591;-67
2023/08/28 00:56:00;;;;;;;3.40;1.00;;;14.20;99.90;;;;;;4997029;28;20561;-67
2023/08/28 00:58:27;;;;;;;3.20;1.77;;;14.10;99.90;;;;;;4992776;28;20485;-67
2023/08/28 01:00:54;;;;;;;2.10;1.30;;;14.10;99.90;;;;;;4991721;28;21149;-69
2023/08/28 01:03:21;;;;;;;2.73;1.10;;;13.90;99.90;;;;;;4995742;28;21003;-69
2023/08/28 01:05:58;;;;;;;2.10;1.50;;;13.90;99.90;;;;;;4994275;28;20577;-68
2023/08/28 01:08:30;;;;;;;1.70;0.80;;;13.70;99.90;;;;;;4994194;28;20502;-68
2023/08/28 01:11:04;;;;;;;2.30;1.27;;;13.50;99.90;;;;;;4988883;28;20499;-68
2023/08/28 01:13:37;;;;;;;1.93;0.80;;;13.40;99.90;;;;;;4990797;28;20487;-68
2023/08/28 01:16:05;;;;;;;1.73;1.03;;;13.30;99.90;;;;;;4975055;28;20508;-69
2023/08/28 01:18:32;;;;;;;2.20;1.30;;;13.30;99.90;;;;;;5000559;28;21019;-67
2023/08/28 01:21:01;;;;;;;2.10;1.27;;;13.40;99.90;;;;;;4988100;28;20555;-67
2023/08/28 01:23:33;;;;;;;2.13;1.10;;;13.50;99.90;;;;;;4987514;28;20484;-67
2023/08/28 01:26:02;;;;;;;2.20;1.17;;;13.60;99.90;;;;;;4966544;28;20483;-67
2023/08/28 01:28:29;;;;;;;2.73;1.33;;;13.60;99.90;;;;;;4988196;28;20500;-67
2023/08/28 01:30:56;;;;;;;2.20;1.37;;;13.70;99.90;;;;;;4996890;28;20486;-68
2023/08/28 01:33:23;;;;;;;1.97;1.00;;;13.70;99.90;;;;;;4998412;28;20587;-68
2023/08/28 01:35:56;;;;;;;1.90;1.20;;;13.70;99.90;;;;;;4985299;28;20474;-69
2023/08/28 01:38:28;;;;;;;1.73;1.00;;;13.80;99.90;;;;;;4990551;28;20481;-69
2023/08/28 01:40:59;;;;;;;2.30;1.30;;;13.80;99.90;;;;;;4980540;28;21283;-69
2023/08/28 01:43:30;;;;;;;2.00;1.17;;;13.80;99.90;;;;;;4978128;28;20495;-69
2023/08/28 01:45:57;;;;;;;4.13;1.43;;;13.80;99.90;;;;;;5001104;28;20891;-68
2023/08/28 01:48:27;;;;;;;2.23;1.30;;;13.50;99.90;;;;;;4994092;28;21147;-68
2023/08/28 01:50:54;;;;;;;1.80;1.10;;;13.50;99.90;;;;;;4989818;28;20610;-68
2023/08/28 01:53:21;;;;;;;2.00;1.00;;;13.40;99.90;;;;;;4983651;28;20563;-68
2023/08/28 01:56:17;;;;;;;3.83;1.10;;;13.40;99.90;;;;;;5003850;28;20484;-68
2023/08/28 01:58:47;;;;;;;2.00;1.30;;;13.30;99.90;;;;;;4992644;28;20575;-68
2023/08/28 02:01:14;;;;;;;2.57;1.40;;;13.20;99.90;;;;;;4988712;28;20487;-68
2023/08/28 02:03:41;;;;;;;3.00;1.00;;;13.20;99.90;;;;;;4987812;28;20590;-68
2023/08/28 02:06:09;;;;;;;3.03;1.27;;;13.30;99.90;;;;;;4987387;28;20917;-68
2023/08/28 02:08:37;;;;;;;1.60;0.87;;;13.40;99.90;;;;;;4983127;28;20488;-68
2023/08/28 02:11:03;;;;;;;1.90;1.00;;;13.40;99.90;;;;;;4989710;28;20890;-68
2023/08/28 02:13:30;;;;;;;7.73;1.03;;;13.50;99.90;;;;;;4995381;28;20570;-69
2023/08/28 02:15:59;;;;;;;1.90;1.10;;;13.50;99.90;;;;;;4988320;28;20927;-68
2023/08/28 02:18:26;;;;;;;2.77;1.70;;;13.60;99.90;;;;;;4974343;28;20740;-69
2023/08/28 02:20:53;;;;;;;2.93;1.30;;;13.60;99.90;;;;;;5002619;28;21152;-68
2023/08/28 02:23:20;;;;;;;2.10;1.10;;;13.70;99.90;;;;;;4981139;28;20934;-68
2023/08/28 02:25:49;;;;;;;2.40;1.30;;;13.70;99.90;;;;;;4984526;28;20474;-68
2023/08/28 02:28:18;;;;;;;2.13;1.30;;;13.80;99.90;;;;;;4987719;28;20485;-68
2023/08/28 02:30:45;;;;;;;2.10;1.00;;;13.80;99.90;;;;;;4986956;28;20491;-68
2023/08/28 02:33:14;;;;;;;2.00;1.40;;;13.90;99.90;;;;;;5005394;28;20486;-68
2023/08/28 02:35:41;;;;;;;2.10;1.40;;;13.90;99.90;;;;;;4994430;28;21192;-69
2023/08/28 02:38:08;;;;;;;2.50;1.60;;;13.90;99.90;;;;;;4980200;28;20985;-69
2023/08/28 02:40:36;;;;;;;2.30;1.53;;;14.00;99.90;;;;;;4986486;28;20477;-68
2023/08/28 02:43:05;;;;;;;1.80;1.17;;;14.00;99.90;;;;;;4972612;28;20595;-68
2023/08/28 02:45:34;;;;;;;5.33;1.20;;;14.00;99.90;;;;;;4984972;28;20486;-68
2023/08/28 02:48:01;;;;;;;2.10;1.17;;;14.00;99.90;;;;;;4991644;28;20486;-68
2023/08/28 02:50:29;;;;;;;2.00;1.10;;;14.00;99.90;;;;;;5001371;28;20507;-68
2023/08/28 02:52:56;;;;;;;2.43;1.30;;;14.00;99.90;;;;;;4995205;28;20648;-67
2023/08/28 02:55:23;;;;;;;3.60;1.57;;;14.00;99.90;;;;;;4983454;28;20491;-67
2023/08/28 02:57:50;;;;;;;3.53;1.20;;;14.00;99.90;;;;;;4996472;28;21100;-67
2023/08/28 03:00:18;;;;;;;2.77;1.60;;;14.10;99.90;;;;;;4984022;28;20485;-67
2023/08/28 03:02:46;;;;;;;3.23;1.20;;;14.10;99.90;;;;;;4976232;28;20486;-67
2023/08/28 03:05:14;;;;;;;2.03;1.40;;;14.10;99.90;;;;;;4976063;28;21283;-67
2023/08/28 03:07:42;;;;;;;6.83;1.50;;;14.00;99.90;;;;;;4983647;28;20478;-67
2023/08/28 03:10:10;;;;;;;2.60;1.63;;;14.00;99.90;;;;;;4998978;28;20559;-67
2023/08/28 03:12:37;;;;;;;5.10;1.23;;;13.90;99.90;;;;;;4980570;28;20513;-67
2023/08/28 03:15:05;;;;;;;2.20;1.13;;;14.00;99.90;;;;;;4977038;28;20561;-67
2023/08/28 03:17:32;;;;;;;2.07;1.10;;;14.00;99.90;;;;;;4992534;28;20822;-67
2023/08/28 03:19:59;;;;;;;2.30;1.70;;;14.00;99.90;;;;;;4977982;28;20500;-69
2023/08/28 03:22:26;;;;;;;2.67;1.70;;;14.00;99.90;;;;;;4976859;28;20581;-68
2023/08/28 03:24:54;;;;;;;2.50;1.30;;;14.00;99.90;;;;;;4975311;28;21039;-68
2023/08/28 03:28:18;;;;;;;2.20;1.63;;;14.00;99.90;;;;;;4984348;28;20931;-68
2023/08/28 03:30:45;;;;;;;1.80;1.03;;;13.90;99.90;;;;;;4981801;28;20585;-67
2023/08/28 03:33:12;;;;;;;1.80;1.10;;;13.70;99.90;;;;;;4977443;28;20572;-68
2023/08/28 03:35:39;;;;;;;1.80;1.00;;;13.60;99.90;;;;;;4987448;28;20890;-68
2023/08/28 03:38:06;;;;;;;1.80;1.20;;;13.60;99.90;;;;;;4988080;28;20569;-68
2023/08/28 03:40:36;;;;;;;3.20;1.50;;;13.60;99.90;;;;;;4981115;28;20489;-68
2023/08/28 03:43:03;;;;;;;1.90;1.20;;;13.60;99.90;;;;;;4976138;28;20606;-68
2023/08/28 03:45:31;;;;;;;1.93;1.33;;;13.60;99.90;;;;;;4977598;28;20923;-68
2023/08/28 03:47:58;;;;;;;2.40;1.17;;;13.60;99.90;;;;;;4987889;28;20611;-68
2023/08/28 03:50:28;;;;;;;4.00;1.70;;;13.60;99.90;;;;;;4983480;28;21019;-68
2023/08/28 03:52:56;;;;;;;3.23;1.80;;;13.60;99.90;;;;;;4979355;28;20485;-67
2023/08/28 03:55:23;;;;;;;1.90;1.00;;;13.60;99.90;;;;;;4980089;28;20492;-68
2023/08/28 03:57:51;;;;;;;3.40;1.53;;;13.70;99.90;;;;;;4994096;28;20483;-68
2023/08/28 04:00:18;;;;;;;2.87;1.00;;;13.70;99.90;;;;;;4985501;28;20504;-69
2023/08/28 04:02:46;;;;;;;3.07;1.07;;;13.70;99.90;;;;;;4980931;28;20496;-68
2023/08/28 04:05:13;;;;;;;3.93;1.60;;;13.70;99.90;;;;;;4978925;28;20580;-68
2023/08/28 04:07:40;;;;;;;2.27;1.23;;;13.70;99.90;;;;;;4991875;28;20480;-68
2023/08/28 04:10:08;;;;;;;2.10;1.20;;;13.60;99.90;;;;;;4983289;28;20495;-68
2023/08/28 04:12:36;;;;;;;1.90;1.30;;;13.60;99.90;;;;;;4980707;28;20566;-68
2023/08/28 04:15:08;;;;;;;4.20;1.57;;;13.50;99.90;;;;;;4979097;28;20505;-68
2023/08/28 04:17:35;;;;;;;4.00;1.20;;;13.40;99.90;;;;;;4984158;28;20484;-68
2023/08/28 04:20:09;;;;;;;2.13;1.40;;;13.40;99.90;;;;;;4986490;28;20552;-68
2023/08/28 04:22:37;;;;;;;3.23;1.33;;;13.40;99.90;;;;;;4972891;28;20570;-68
2023/08/28 04:25:05;;;;;;;2.20;1.17;;;13.40;99.90;;;;;;4979162;28;20516;-68
2023/08/28 04:27:32;;;;;;;1.90;1.23;;;13.40;99.90;;;;;;4990396;28;20588;-68
2023/08/28 04:30:00;;;;;;;2.17;1.40;;;13.30;99.90;;;;;;4984719;28;20481;-67
2023/08/28 04:32:28;;;;;;;2.47;1.53;;;13.40;99.90;;;;;;4980362;28;20538;-67
2023/08/28 04:34:55;;;;;;;4.70;1.93;;;13.40;99.90;;;;;;4988356;28;20913;-67
2023/08/28 04:37:24;;;;;;;2.03;1.67;;;13.40;99.90;;;;;;4985660;28;20488;-67
2023/08/28 04:39:51;;;;;;;2.77;1.20;;;13.40;99.90;;;;;;4983254;28;20869;-68
2023/08/28 04:42:18;;;;;;;2.00;1.63;;;13.40;99.90;;;;;;4980982;28;20577;-68
2023/08/28 04:44:45;;;;;;;3.43;1.53;;;13.30;99.90;;;;;;4984068;28;21237;-68
2023/08/28 04:47:13;;;;;;;6.30;1.73;;;13.30;99.90;;;;;;4992362;28;20568;-68
2023/08/28 04:49:41;;;;;;;2.27;1.40;;;13.20;99.90;;;;;;4985658;28;20482;-68
2023/08/28 04:52:08;;;;;;;1.97;1.10;;;13.30;99.90;;;;;;4986493;28;21186;-68
2023/08/28 04:54:36;;;;;;;2.67;1.63;;;13.30;99.90;;;;;;4987943;28;20489;-68
2023/08/28 04:57:03;;;;;;;5.73;1.40;;;13.40;99.90;;;;;;4992999;28;20488;-68
2023/08/28 04:59:30;;;;;;;2.63;1.83;;;13.40;99.90;;;;;;4982352;28;20500;-68
2023/08/28 05:01:57;;;;;;;4.00;1.53;;;13.40;99.90;;;;;;4978546;28;20880;-68
2023/08/28 05:04:23;;;;;;;2.07;1.27;;;13.50;99.90;;;;;;4979942;28;20474;-68
2023/08/28 05:06:52;;;;;;;3.60;1.60;;;13.50;99.90;;;;;;5000102;28;20479;-68
2023/08/28 05:09:19;;;;;;;2.50;1.50;;;13.60;99.90;;;;;;4970238;28;20563;-68
2023/08/28 05:11:45;;;;;;;3.10;1.40;;;13.60;99.90;;;;;;4996099;28;20922;-68
2023/08/28 05:14:12;;;;;;;2.27;1.30;;;13.60;99.90;;;;;;4984060;28;20485;-68
2023/08/28 05:16:39;;;;;;;2.00;1.20;;;13.60;99.90;;;;;;4995199;28;20826;-68
2023/08/28 05:19:06;;;;;;;1.90;1.03;;;13.60;99.90;;;;;;4982865;28;20561;-69
2023/08/28 05:21:33;;;;;;;2.30;1.97;;;13.60;99.90;;;;;;4985725;28;20546;-68
2023/08/28 05:24:02;;;;;;;3.13;1.50;;;13.60;99.90;;;;;;4998893;28;20805;-68
2023/08/28 05:26:29;;;;;;;2.00;1.40;;;13.70;99.90;;;;;;4982852;28;20571;-68
2023/08/28 05:28:57;;;;;;;2.30;1.47;;;13.80;99.90;;;;;;4983874;28;21084;-69
2023/08/28 05:31:23;;;;;;;3.33;1.60;;;13.60;99.90;;;;;;4986137;28;21036;-69
2023/08/28 05:33:50;;;;;;;4.83;1.80;;;13.70;99.90;;;;;;4980069;28;20577;-68
2023/08/28 05:36:17;;;;;;;2.00;1.50;;;13.70;99.90;;;;;;4977784;28;21008;-68
2023/08/28 05:38:44;;;;;;;2.70;1.53;;;13.70;99.90;;;;;;4983388;28;20480;-69
2023/08/28 05:41:15;;;;;;;3.27;1.80;;;13.80;99.90;;;;;;4989127;28;20592;-69
2023/08/28 05:43:42;;;;;;;3.57;2.07;;;13.80;99.90;;;;;;4974613;28;20840;-68
2023/08/28 05:46:09;;;;;;;3.93;1.63;;;13.70;99.90;;;;;;4981875;28;20930;-69
2023/08/28 05:48:36;;;;;;;2.20;1.57;;;13.80;99.90;;;;;;4992139;28;20917;-69
2023/08/28 05:51:03;;;;;;;2.07;1.57;;;13.90;99.90;;;;;;4986015;28;21165;-69
2023/08/28 05:53:30;;;;;;;2.90;1.90;;;13.90;99.90;;;;;;4979848;28;20964;-68
2023/08/28 05:55:57;;;;;;;8.13;1.40;;;13.90;99.90;;;;;;4976517;28;20490;-68
2023/08/28 05:58:25;;;;;;;3.33;2.33;;;14.00;99.90;;;;;;4986650;28;20834;-68
2023/08/28 06:00:53;;;;;;;2.40;1.63;;;14.10;99.90;;;;;;4984657;28;20481;-68
2023/08/28 06:03:20;;;;;;;2.07;1.43;;;14.10;99.90;;;;;;4966805;28;20481;-68
2023/08/28 06:05:47;;;;;;;2.20;1.43;;;14.10;99.90;;;;;;4977221;28;20570;-68
2023/08/28 06:08:14;;;;;;;2.30;1.67;;;14.10;99.90;;;;;;4989247;28;20856;-68
2023/08/28 06:10:42;;;;;;;2.60;1.90;;;14.20;99.90;;;;;;4980579;28;20573;-68
2023/08/28 06:13:09;;;;;;;2.30;1.87;;;14.10;99.90;;;;;;4977818;28;20485;-68
2023/08/28 06:15:37;;;;;;;3.43;1.63;;;14.10;99.90;;;;;;4975701;28;20573;-68
2023/08/28 06:18:05;;;;;;;3.07;1.70;;;14.10;99.90;;;;;;4986072;28;20566;-68
2023/08/28 06:20:32;;;;;;;2.47;2.27;;;14.20;99.90;;;;;;5002012;28;21248;-67
2023/08/28 06:22:59;;;;;;;2.93;1.80;;;14.20;99.90;;;;;;4982479;28;20825;-67
2023/08/28 06:25:26;;;;;;;3.80;2.53;;;14.40;99.90;;;;;;4978465;28;20935;-67
2023/08/28 06:27:54;;;;;;;3.00;2.07;;;14.40;99.90;;;;;;4986206;28;20479;-67
2023/08/28 06:30:21;;;;;;;2.23;1.87;;;14.50;99.90;;;;;;4973492;28;20628;-68
2023/08/28 06:32:49;;;;;;;4.33;1.87;;;14.60;99.90;;;;;;4980425;28;20479;-68
2023/08/28 06:35:16;;;;;;;2.50;1.60;;;14.50;99.90;;;;;;4976595;28;20868;-68
2023/08/28 06:37:44;;;;;;;2.20;1.93;;;14.50;99.90;;;;;;4985643;28;20596;-68
2023/08/28 06:40:11;;;;;;;5.60;2.20;;;14.50;99.90;;;;;;4977334;28;20571;-68
2023/08/28 06:42:38;;;;;;;4.13;2.00;;;14.50;99.90;;;;;;4976897;28;20601;-68
2023/08/28 06:45:08;;;;;;;2.20;1.70;;;14.60;99.90;;;;;;4975374;28;20481;-68
2023/08/28 06:47:35;;;;;;;2.70;2.30;;;14.60;99.90;;;;;;4988642;28;20496;-68
2023/08/28 06:50:03;;;;;;;2.40;2.07;;;14.70;99.90;;;;;;4985212;28;20506;-67
2023/08/28 06:52:30;;;;;;;4.23;2.20;;;14.80;99.90;;;;;;4995351;28;20469;-68
2023/08/28 06:54:57;;;;;;;3.20;2.57;;;14.70;99.90;;;;;;4980848;28;20577;-68
2023/08/28 06:57:24;;;;;;;3.90;1.90;;;14.90;99.90;;;;;;4990286;28;21008;-68
2023/08/28 06:59:53;;;;;;;2.23;2.03;;;14.90;99.90;;;;;;4992087;28;20482;-68
2023/08/28 07:02:20;;;;;;;3.60;2.33;;;15.00;99.90;;;;;;4978397;28;20487;-68
2023/08/28 07:04:47;;;;;;;5.87;2.50;;;15.10;99.90;;;;;;4976915;28;20490;-68
2023/08/28 07:07:17;;;;;;;2.53;2.00;;;15.20;99.90;;;;;;4983936;28;20500;-68
2023/08/28 07:09:44;;;;;;;2.97;2.37;;;15.30;99.90;;;;;;4986836;28;20474;-68
2023/08/28 07:12:11;;;;;;;3.53;2.10;;;15.40;99.90;;;;;;4978446;28;20536;-68
2023/08/28 07:14:38;;;;;;;5.53;2.93;;;15.50;99.90;;;;;;4986538;28;20492;-67
2023/08/28 07:17:05;;;;;;;3.70;2.67;;;15.60;99.90;;;;;;4982450;28;20485;-68
2023/08/28 07:19:33;;;;;;;4.03;3.40;;;15.60;99.90;;;;;;4988674;28;20548;-68
2023/08/28 07:22:00;;;;;;;3.27;2.70;;;15.60;99.90;;;;;;4976520;28;20560;-68
2023/08/28 07:24:29;;;;;;;3.00;2.43;;;15.70;99.90;;;;;;4978324;28;20493;-67
2023/08/28 07:26:55;;;;;;;4.50;2.67;;;15.80;99.90;;;;;;4980998;28;20559;-67
2023/08/28 07:29:22;;;;;;;3.80;2.13;;;15.90;99.90;;;;;;4999498;28;21011;-68
2023/08/28 07:31:49;;;;;;;5.90;2.60;;;15.90;99.90;;;;;;4980054;28;21323;-67
2023/08/28 07:34:16;;;;;;;2.30;2.10;;;16.00;99.90;;;;;;4978185;28;20584;-67
2023/08/28 07:36:44;;;;;;;3.40;2.87;;;16.10;99.90;;;;;;4986467;28;20585;-67
2023/08/28 07:39:11;;;;;;;16.03;3.30;;;16.10;99.90;;;;;;4991356;28;20601;-68
2023/08/28 07:41:39;;;;;;;6.57;2.53;;;16.20;99.90;;;;;;4982464;28;20576;-68
2023/08/28 07:44:06;;;;;;;3.10;2.70;;;16.20;99.90;;;;;;4980837;28;20549;-68
2023/08/28 07:46:33;;;;;;;2.93;2.60;;;16.30;99.90;;;;;;4984742;28;20548;-68
2023/08/28 07:49:00;;;;;;;3.63;2.70;;;16.30;99.90;;;;;;4984526;28;20474;-67
2023/08/28 07:51:27;;;;;;;2.90;2.60;;;16.40;99.90;;;;;;4987257;28;21154;-68
2023/08/28 07:53:55;;;;;;;4.17;2.37;;;16.40;99.90;;;;;;4979727;28;21069;-67
2023/08/28 07:56:22;;;;;;;5.13;2.60;;;16.50;99.90;;;;;;4980205;28;20568;-68
2023/08/28 07:58:50;;;;;;;2.73;2.20;;;16.60;99.90;;;;;;4986409;28;20573;-68
2023/08/28 08:01:17;;;;;;;3.30;2.57;;;16.70;99.90;;;;;;4982386;28;20874;-68
2023/08/28 08:03:44;;;;;;;3.10;2.70;;;16.80;99.90;;;;;;4979766;28;20486;-68
2023/08/28 08:06:10;;;;;;;3.50;2.43;;;16.80;99.90;;;;;;4984180;28;20560;-68
2023/08/28 08:08:37;;;;;;;4.10;2.63;;;16.90;99.90;;;;;;4993987;28;20938;-68
2023/08/28 08:11:04;;;;;;;3.03;1.90;;;17.00;99.90;;;;;;4992640;28;20480;-68
2023/08/28 08:13:31;;;;;;;3.90;2.67;;;17.10;99.90;;;;;;4999823;28;20884;-68
2023/08/28 08:15:59;;;;;;;2.87;2.57;;;17.20;99.90;;;;;;4984780;28;21279;-68
2023/08/28 08:18:26;;;;;;;5.27;2.47;;;17.30;99.90;;;;;;4986298;28;20985;-68
2023/08/28 08:20:53;;;;;;;4.83;2.93;;;17.30;99.90;;;;;;4984227;28;20579;-68
2023/08/28 08:23:20;;;;;;;5.30;2.47;;;17.30;99.90;;;;;;4984225;28;20858;-68
2023/08/28 08:25:47;;;;;;;3.57;2.53;;;17.40;99.90;;;;;;4978927;28;20484;-68
2023/08/28 08:28:15;;;;;;;2.80;2.30;;;17.40;99.90;;;;;;4986164;28;20577;-68
2023/08/28 08:30:42;;;;;;;3.50;2.57;;;17.50;99.90;;;;;;5002593;28;21575;-68
2023/08/28 08:33:10;;;;;;;2.67;2.40;;;17.60;99.90;;;;;;4986043;28;20565;-68
2023/08/28 08:35:37;;;;;;;8.43;2.77;;;17.60;99.90;;;;;;4976522;28;20587;-67
2023/08/28 08:38:04;;;;;;;3.00;2.57;;;17.70;99.90;;;;;;4988948;28;21004;-67
2023/08/28 08:40:33;;;;;;;8.53;2.10;;;17.70;99.90;;;;;;4983205;28;21058;-67
2023/08/28 08:42:59;;;;;;;4.60;2.37;;;17.80;99.90;;;;;;4979054;28;20501;-67
2023/08/28 08:45:28;;;;;;;3.90;2.40;;;17.90;99.90;;;;;;4981457;28;20482;-67
2023/08/28 08:47:58;;;;;;;5.00;2.53;;;18.00;99.90;;;;;;4986054;28;20986;-67
2023/08/28 08:50:28;;;;;;;4.20;2.87;;;18.10;99.90;;;;;;4984968;28;20968;-68
2023/08/28 08:53:00;;;;;;;2.70;2.50;;;18.10;99.90;;;;;;4987841;28;20533;-68
2023/08/28 08:55:31;;;;;;;5.07;2.30;;;18.20;99.90;;;;;;4978701;28;20935;-68
2023/08/28 08:58:03;;;;;;;2.70;2.07;;;18.20;99.90;;;;;;4992070;28;20899;-68
2023/08/28 09:00:31;;;;;;;4.20;2.43;;;18.30;99.90;;;;;;4998516;28;20487;-68
2023/08/28 09:02:59;;;;;;;2.77;2.13;;;18.40;99.90;;;;;;4981753;28;20487;-68
2023/08/28 09:05:27;;;;;;;2.80;2.50;;;18.50;99.90;;;;;;4983711;28;20933;-68
2023/08/28 09:07:56;;;;;;;4.43;2.03;;;18.50;99.90;;;;;;4986884;28;20478;-68
2023/08/28 09:10:23;;;;;;;3.03;2.10;;;18.60;99.90;;;;;;4984746;28;20556;-68
2023/08/28 09:12:51;;;;;;;4.43;2.47;;;18.60;99.90;;;;;;4980523;28;20574;-68
2023/08/28 09:15:18;;;;;;;2.60;2.07;;;18.70;99.90;;;;;;4983392;28;20583;-68
2023/08/28 09:17:45;;;;;;;9.00;2.40;;;18.70;99.90;;;;;;4991276;28;20489;-68
2023/08/28 09:20:17;;;;;;;9.23;2.30;;;18.80;99.90;;;;;;4982506;28;20559;-68
2023/08/28 09:22:49;;;;;;;2.40;2.10;;;18.90;99.90;;;;;;4979492;28;21016;-68
2023/08/28 09:25:17;;;;;;;4.40;2.80;;;19.00;99.90;;;;;;4988242;28;20473;-68
2023/08/28 09:27:45;;;;;;;2.77;2.20;;;19.10;99.90;;;;;;4990411;28;20461;-68
2023/08/28 09:30:28;;;;;;;2.80;2.43;;;19.20;99.90;;;;;;4990169;28;20486;-68
2023/08/28 09:32:55;;;;;;;2.40;1.90;;;19.40;99.90;;;;;;4977380;28;20589;-68
2023/08/28 09:35:22;;;;;;;3.43;2.13;;;19.50;99.90;;;;;;4990709;28;20920;-68
2023/08/28 09:37:58;;;;;;;2.70;2.20;;;19.50;99.90;;;;;;4988619;28;21938;-68
2023/08/28 09:40:30;;;;;;;4.50;2.17;;;19.60;99.90;;;;;;4986715;28;20577;-68
2023/08/28 09:42:57;;;;;;;2.60;2.20;;;19.70;99.90;;;;;;4989709;28;20858;-68
2023/08/28 09:45:24;;;;;;;2.87;1.97;;;19.60;99.90;;;;;;4991206;28;20477;-68
2023/08/28 09:47:54;;;;;;;4.37;2.57;;;19.60;99.90;;;;;;4990972;28;20470;-69
2023/08/28 09:50:24;;;;;;;3.90;2.50;;;19.60;99.90;;;;;;4982571;28;20470;-68
2023/08/28 09:52:51;;;;;;;2.73;1.80;;;19.70;99.90;;;;;;4987357;28;21425;-68
2023/08/28 09:55:20;;;;;;;3.27;2.37;;;19.80;99.90;;;;;;4987714;28;20497;-68
2023/08/28 09:57:49;;;;;;;5.70;2.20;;;19.80;99.90;;;;;;4991429;28;20504;-69
2023/08/28 10:00:16;;;;;;;4.03;2.83;;;19.90;99.90;;;;;;4989456;28;20503;-69
2023/08/28 10:02:44;;;;;;;5.60;2.87;;;20.00;99.90;;;;;;4986726;28;20952;-68
2023/08/28 10:05:14;;;;;;;2.93;2.50;;;20.20;99.90;;;;;;4988190;28;20477;-69
2023/08/28 10:07:44;;;;;;;4.00;3.17;;;20.30;99.90;;;;;;4988123;28;20973;-69
2023/08/28 10:10:15;;;;;;;3.90;3.07;;;20.30;99.90;;;;;;4991317;28;20975;-70
2023/08/28 10:12:45;;;;;;;5.50;2.53;;;20.40;99.90;;;;;;4990638;28;20510;-70
2023/08/28 10:15:13;;;;;;;5.07;2.60;;;20.50;99.90;;;;;;4989016;28;20481;-70
2023/08/28 10:17:42;;;;;;;5.30;3.00;;;20.50;99.90;;;;;;4991516;28;20488;-69
2023/08/28 10:20:11;;;;;;;2.40;2.20;;;20.60;99.90;;;;;;4989325;28;21442;-69
2023/08/28 10:22:41;;;;;;;4.17;3.10;;;20.60;99.90;;;;;;4986618;28;20480;-70
2023/08/28 10:25:09;;;;;;;2.97;2.77;;;20.50;99.90;;;;;;4988065;28;20581;-70
2023/08/28 10:27:36;;;;;;;2.50;2.20;;;20.60;99.90;;;;;;4985757;28;20561;-69
2023/08/28 10:30:09;;;;;;;2.83;2.27;;;20.70;99.90;;;;;;4984293;28;20874;-70
2023/08/28 10:32:37;;;;;;;3.07;1.97;;;20.80;99.90;;;;;;4979887;28;20945;-70
2023/08/28 10:35:05;;;;;;;2.93;1.73;;;20.90;99.90;;;;;;4980122;28;20584;-70
2023/08/28 10:37:32;;;;;;;7.83;2.20;;;21.00;99.90;;;;;;4997820;28;20568;-70
2023/08/28 10:40:01;;;;;;;2.77;1.67;;;21.00;99.90;;;;;;4981409;28;20579;-70
2023/08/28 10:42:29;;;;;;;2.70;1.50;;;21.10;99.80;;;;;;4980951;28;20465;-71
2023/08/28 10:44:56;;;;;;;2.20;1.90;;;21.00;99.40;;;;;;4995009;28;20584;-70
2023/08/28 10:47:24;;;;;;;2.20;2.00;;;21.00;99.20;;;;;;4993993;28;20536;-70
2023/08/28 10:49:55;;;;;;;3.63;2.00;;;21.00;98.80;;;;;;4988528;28;20573;-71
2023/08/28 10:52:23;;;;;;;2.40;1.87;;;21.00;98.80;;;;;;4981051;28;20490;-70
2023/08/28 10:54:51;;;;;;;1.90;1.33;;;21.00;99.20;;;;;;4985954;28;20922;-72
2023/08/28 10:57:26;;;;;;;2.23;1.60;;;21.00;98.50;;;;;;4989541;28;20474;-71
2023/08/28 10:59:52;;;;;;;2.20;1.50;;;21.00;98.80;;;;;;4990022;28;20485;-71
2023/08/28 11:02:20;;;;;;;4.50;1.97;;;21.00;98.40;;;;;;4988015;28;20600;-70
2023/08/28 11:04:48;;;;;;;2.00;1.60;;;21.10;98.20;;;;;;4982837;28;20980;-70
2023/08/28 11:07:44;;;;;;;3.20;1.90;;;21.10;98.20;;;;;;4987774;28;20545;-70
2023/08/28 11:10:19;;;;;;;3.73;1.90;;;21.10;98.10;;;;;;4974785;28;21044;-70
2023/08/28 11:12:54;;;;;;;4.10;1.67;;;21.10;97.90;;;;;;4982123;28;20579;-70
2023/08/28 11:15:29;;;;;;;1.90;1.40;;;21.20;97.90;;;;;;4987346;28;20451;-70
2023/08/28 11:18:29;;;;;;;2.60;1.90;;;21.20;97.50;;;;;;4986871;28;20505;-70
2023/08/28 11:20:58;;;;;;;2.37;1.70;;;21.30;97.70;;;;;;4933351;28;20878;-70
2023/08/28 11:23:33;;;;;;;2.30;1.90;;;21.30;97.10;;;;;;4946601;28;20653;-71
2023/08/28 11:26:03;;;;;;;1.93;1.67;;;21.30;96.70;;;;;;4961275;28;20469;-70
2023/08/28 11:28:32;;;;;;;4.80;1.50;;;21.30;96.50;;;;;;4980218;28;20466;-70
2023/08/28 11:31:04;;;;;;;1.87;1.40;;;21.30;97.20;;;;;;4984198;28;20496;-70
2023/08/28 11:33:40;;;;;;;1.70;1.17;;;21.30;97.20;;;;;;4979045;28;20627;-70
2023/08/28 11:36:08;;;;;;;1.80;1.20;;;21.20;96.40;;;;;;4983161;28;21033;-70
2023/08/28 11:38:36;;;;;;;2.10;1.70;;;21.20;97.10;;;;;;4990141;28;20485;-70
2023/08/28 11:41:04;;;;;;;2.30;1.40;;;21.30;97.50;;;;;;4986701;28;20475;-70
2023/08/28 11:43:35;;;;;;;2.03;1.33;;;21.20;96.80;;;;;;4985851;28;20632;-70
2023/08/28 11:46:03;;;;;;;3.13;1.40;;;21.20;96.90;;;;;;4986771;28;20483;-70
2023/08/28 11:48:34;;;;;;;2.40;1.80;;;21.20;96.40;;;;;;4989707;28;20532;-71
2023/08/28 11:51:03;;;;;;;2.00;1.47;;;21.20;96.60;;;;;;4986978;28;20573;-70
2023/08/28 11:53:33;;;;;;;4.40;2.07;;;21.20;96.20;;;;;;4986305;28;20555;-70
2023/08/28 11:56:04;;;;;;;2.70;1.30;;;21.10;96.20;;;;;;4983711;28;20799;-70
2023/08/28 11:58:35;;;;;;;1.97;1.20;;;21.20;97.10;;;;;;4983282;28;20492;-70
2023/08/28 12:01:05;;;;;;;2.40;1.27;;;21.20;97.10;;;;;;4992908;28;21067;-70
2023/08/28 12:03:32;;;;;;;2.00;1.23;;;21.20;96.60;;;;;;4986929;28;21048;-70
2023/08/28 12:06:06;;;;;;;2.57;2.27;;;21.20;96.60;;;;;;4977616;28;20594;-70
2023/08/28 12:08:37;;;;;;;2.10;1.63;;;21.20;96.50;;;;;;4984464;28;21118;-70
2023/08/28 12:11:07;;;;;;;4.40;2.00;;;21.20;96.70;;;;;;4970702;28;20549;-71
2023/08/28 12:13:34;;;;;;;2.00;1.73;;;21.20;96.70;;;;;;4981492;28;20484;-70
2023/08/28 12:16:10;;;;;;;2.10;1.43;;;21.10;96.20;;;;;;5001503;28;20564;-70
2023/08/28 12:18:47;;;;;;;2.73;2.53;;;21.10;96.40;;;;;;4990340;28;20538;-71
2023/08/28 12:21:15;;;;;;;2.57;2.27;;;21.00;96.40;;;;;;4991223;28;20512;-71
2023/08/28 12:23:56;;;;;;;2.60;2.00;;;20.90;96.70;;;;;;4989168;28;20571;-71
2023/08/28 12:26:25;;;;;;;4.37;2.40;;;20.90;97.00;;;;;;4992456;28;20521;-71
2023/08/28 12:28:52;;;;;;;2.57;2.37;;;20.90;96.30;;;;;;4989522;28;20473;-71
2023/08/28 12:31:27;;;;;;;2.57;1.83;;;21.00;96.60;;;;;;4991476;28;21182;-71
2023/08/28 12:33:55;;;;;;;2.07;1.67;;;21.00;96.20;;;;;;4991519;28;20490;-71
2023/08/28 12:36:34;;;;;;;2.10;1.60;;;20.90;96.10;;;;;;4991076;28;21184;-71
2023/08/28 12:39:03;;;;;;;3.80;1.87;;;20.90;96.30;;;;;;4988179;28;20489;-71
2023/08/28 12:41:35;;;;;;;4.40;2.70;;;20.90;95.90;;;;;;4992540;28;20477;-70
2023/08/28 12:44:02;;;;;;;1.90;1.60;;;21.00;96.20;;;;;;4991176;28;20470;-71
2023/08/28 12:46:29;;;;;;;3.53;2.30;;;21.00;96.20;;;;;;4992634;28;20540;-70
2023/08/28 12:48:56;;;;;;;2.60;1.50;;;21.10;96.00;;;;;;4992566;28;20616;-70
2023/08/28 12:51:23;;;;;;;2.27;2.03;;;21.10;96.30;;;;;;4990128;28;20547;-70
2023/08/28 12:53:50;;;;;;;2.70;2.07;;;21.10;96.60;;;;;;4991305;28;20485;-71
2023/08/28 12:56:18;;;;;;;2.20;1.77;;;21.10;95.70;;;;;;4984441;28;21458;-71